Airport ID:KGOO
Update Time (UTC):27/11/2022 14:32
Wind Speed (Knots):0
Wind Direction (Magnetic):120
Temperature (°C):8
Dew Point (°C):-6
Humidity (%):36
Altimeter (inHg):30.13
Density Altitude (Feet):
Visibility:10+
Clouds (Hundreds of feet):CLR
Present Weather:
METAR:METAR KGOO 271430Z AUTO 00000KT 10SM CLR 08/M06 A3013 RMK A01

The data displayed is for advisory purposes only and is not to be used for flight planning or operations.